Time;durP1;ratioP1;P1;durP2;ratioP2;P2;SDS_P1;SDS_P2;PMS_P1;PMS_P2;Temp;Humidity;BMP_temperature;BMP_pressure;BME280_temperature;BME280_humidity;BME280_pressure;Samples;Min_cycle;Max_cycle;Signal;HPM_P1;HPM_P2
2022/07/21 00:01:31;;;;;;;6.53;5.88;;;24.00;87.50;;;;;;5034301;28;20475;-62
2022/07/21 00:03:56;;;;;;;7.75;6.00;;;23.90;87.50;;;;;;5034712;28;20029;-61
2022/07/21 00:06:22;;;;;;;7.32;6.03;;;23.90;87.70;;;;;;5034430;28;20068;-61
2022/07/21 00:08:47;;;;;;;7.28;6.50;;;23.80;88.10;;;;;;5034357;28;20026;-62
2022/07/21 00:11:13;;;;;;;7.05;6.35;;;23.80;88.20;;;;;;5034572;28;20021;-61
2022/07/21 00:13:39;;;;;;;8.63;6.57;;;23.80;88.20;;;;;;5034718;28;20445;-61
2022/07/21 00:16:05;;;;;;;6.55;5.82;;;23.70;88.30;;;;;;5034115;28;20429;-62
2022/07/21 00:18:30;;;;;;;8.57;5.93;;;23.70;88.10;;;;;;5034355;28;20072;-61
2022/07/21 00:20:56;;;;;;;5.95;5.43;;;23.70;88.00;;;;;;5034215;28;20116;-62
2022/07/21 00:23:26;;;;;;;6.03;5.53;;;23.70;88.10;;;;;;5034318;28;20075;-62
2022/07/21 00:25:52;;;;;;;6.03;5.43;;;23.70;88.10;;;;;;5034279;28;20026;-61
2022/07/21 00:28:17;;;;;;;6.15;5.47;;;23.70;87.80;;;;;;5034545;28;20033;-61
2022/07/21 00:30:44;;;;;;;6.68;5.70;;;23.70;88.00;;;;;;5033794;28;20036;-61
2022/07/21 00:33:09;;;;;;;6.18;5.35;;;23.60;88.20;;;;;;5034109;28;20045;-61
2022/07/21 00:35:35;;;;;;;7.90;4.97;;;23.60;87.90;;;;;;5033948;28;20032;-61
2022/07/21 00:38:01;;;;;;;6.13;5.05;;;23.60;87.70;;;;;;5033847;28;20087;-61
2022/07/21 00:40:27;;;;;;;7.22;5.18;;;23.60;88.10;;;;;;5033941;28;20189;-61
2022/07/21 00:42:54;;;;;;;7.90;4.40;;;23.50;88.20;;;;;;5033856;28;20033;-62
2022/07/21 00:45:19;;;;;;;5.57;4.88;;;23.50;88.40;;;;;;5033692;28;20021;-62
2022/07/21 00:47:45;;;;;;;6.90;4.82;;;23.40;88.50;;;;;;5033840;28;20112;-62
2022/07/21 00:50:15;;;;;;;5.30;4.47;;;23.40;88.30;;;;;;5033890;28;20049;-61
2022/07/21 00:52:40;;;;;;;7.35;5.00;;;23.50;88.40;;;;;;5033014;28;20021;-61
2022/07/21 00:55:09;;;;;;;8.55;4.68;;;23.40;88.80;;;;;;5033930;28;20037;-61
2022/07/21 00:57:35;;;;;;;7.80;4.90;;;23.30;88.80;;;;;;5033527;28;20029;-61
2022/07/21 01:00:04;;;;;;;7.88;5.35;;;23.30;88.90;;;;;;5033354;28;20033;-61
2022/07/21 01:02:31;;;;;;;5.65;4.55;;;23.40;88.60;;;;;;5033454;28;20045;-61
2022/07/21 01:04:57;;;;;;;5.72;4.20;;;23.30;88.70;;;;;;5033791;28;20071;-62
2022/07/21 01:07:23;;;;;;;5.18;4.53;;;23.30;88.70;;;;;;5033440;28;20100;-62
2022/07/21 01:09:49;;;;;;;5.72;4.30;;;23.30;88.70;;;;;;5033405;28;20593;-63
2022/07/21 01:12:15;;;;;;;5.78;4.53;;;23.20;88.80;;;;;;5033304;28;20032;-62
2022/07/21 01:14:41;;;;;;;8.32;4.63;;;23.20;88.90;;;;;;5033209;28;20049;-62
2022/07/21 01:17:06;;;;;;;6.72;4.60;;;23.20;89.10;;;;;;5033477;28;20061;-62
2022/07/21 01:19:32;;;;;;;5.10;4.57;;;23.10;89.30;;;;;;5033366;28;20026;-62
2022/07/21 01:21:58;;;;;;;4.72;4.30;;;23.10;89.30;;;;;;5033299;28;20041;-62
2022/07/21 01:24:24;;;;;;;5.57;4.40;;;23.20;89.00;;;;;;5033034;28;20021;-62
2022/07/21 01:26:52;;;;;;;5.50;4.40;;;23.20;88.90;;;;;;5033502;28;20033;-62
2022/07/21 01:29:18;;;;;;;7.20;4.30;;;23.10;89.10;;;;;;5032915;28;20465;-62
2022/07/21 01:31:46;;;;;;;6.10;4.32;;;23.20;88.60;;;;;;5033081;28;20566;-62
2022/07/21 01:34:12;;;;;;;5.65;4.15;;;23.20;88.90;;;;;;5033057;28;20017;-63
2022/07/21 01:36:38;;;;;;;7.55;4.07;;;23.10;89.00;;;;;;5033111;28;20036;-62
2022/07/21 01:41:49;;;;;;;5.38;4.15;;;23.10;89.10;;;;;;5033265;28;20072;-62
2022/07/21 01:44:15;;;;;;;5.20;3.95;;;23.10;89.00;;;;;;5032585;28;20018;-62
2022/07/21 01:46:45;;;;;;;6.38;4.30;;;23.00;89.30;;;;;;5033068;28;20025;-61
2022/07/21 01:49:12;;;;;;;7.95;4.22;;;23.10;89.20;;;;;;5033161;28;20112;-61
2022/07/21 01:51:38;;;;;;;6.10;4.10;;;23.00;89.20;;;;;;5033033;28;20045;-61
2022/07/21 01:54:06;;;;;;;6.70;4.10;;;22.90;89.60;;;;;;5033100;28;20383;-61
2022/07/21 01:56:32;;;;;;;4.43;3.80;;;22.90;90.00;;;;;;5032883;28;20072;-61
2022/07/21 01:58:58;;;;;;;6.30;4.70;;;22.80;89.90;;;;;;5032567;28;20021;-61
2022/07/21 02:01:28;;;;;;;8.07;4.20;;;22.90;90.00;;;;;;5032762;28;20437;-61
2022/07/21 02:03:56;;;;;;;5.53;4.40;;;22.90;90.00;;;;;;5034177;28;20475;-61
2022/07/21 02:06:21;;;;;;;8.68;4.22;;;22.80;90.00;;;;;;5037095;28;20022;-61
2022/07/21 02:08:47;;;;;;;4.93;4.10;;;22.80;90.00;;;;;;5040711;28;20091;-61
2022/07/21 02:11:14;;;;;;;4.75;3.55;;;22.80;90.00;;;;;;5036510;28;20064;-61
2022/07/21 02:13:40;;;;;;;6.93;4.60;;;22.80;90.20;;;;;;5035630;28;20030;-61
2022/07/21 02:16:06;;;;;;;7.10;4.30;;;22.80;90.20;;;;;;5036594;28;20025;-61
2022/07/21 02:18:32;;;;;;;5.85;4.32;;;22.80;90.10;;;;;;5036513;28;20080;-61
2022/07/21 02:20:58;;;;;;;5.97;4.05;;;22.80;90.20;;;;;;5036841;28;20025;-61
2022/07/21 02:23:25;;;;;;;7.25;3.90;;;22.90;90.10;;;;;;5036538;28;20161;-61
2022/07/21 02:25:52;;;;;;;5.90;4.55;;;22.80;90.20;;;;;;5036244;28;20021;-61
2022/07/21 02:28:18;;;;;;;7.30;4.53;;;22.80;90.20;;;;;;5036449;28;20029;-61
2022/07/21 02:30:45;;;;;;;6.85;4.82;;;22.90;90.10;;;;;;5036280;28;20037;-61
2022/07/21 02:33:11;;;;;;;8.55;5.13;;;22.80;90.20;;;;;;5036650;28;20381;-62
2022/07/21 02:35:37;;;;;;;6.75;5.20;;;22.80;90.20;;;;;;5036499;28;20474;-62
2022/07/21 02:38:03;;;;;;;8.93;4.93;;;22.80;90.20;;;;;;5036541;28;20026;-66
2022/07/21 02:40:29;;;;;;;7.45;5.10;;;22.80;90.30;;;;;;5035803;28;20028;-61
2022/07/21 02:42:54;;;;;;;9.20;5.15;;;22.80;90.30;;;;;;5036315;28;20030;-61
2022/07/21 02:45:20;;;;;;;9.98;4.88;;;22.70;90.50;;;;;;5036161;28;20116;-61
2022/07/21 02:48:12;;;;;;;10.13;5.05;;;22.70;90.60;;;;;;5036282;28;20072;-61
2022/07/21 02:50:41;;;;;;;7.00;5.00;;;22.80;90.50;;;;;;5034043;28;20041;-61
2022/07/21 02:53:19;;;;;;;8.30;5.40;;;22.80;90.40;;;;;;5036088;28;20067;-61
2022/07/21 02:55:48;;;;;;;6.68;4.95;;;22.80;90.50;;;;;;5034217;28;20030;-61
2022/07/21 02:58:17;;;;;;;6.50;4.43;;;22.70;90.40;;;;;;5035904;28;20030;-61
2022/07/21 03:00:53;;;;;;;9.40;5.15;;;22.70;90.60;;;;;;5035908;28;20057;-61
2022/07/21 03:03:20;;;;;;;9.70;5.25;;;22.70;90.80;;;;;;5035945;28;20095;-61
2022/07/21 03:05:46;;;;;;;8.18;5.10;;;22.60;90.80;;;;;;5035761;28;20104;-61
2022/07/21 03:08:12;;;;;;;10.57;5.30;;;22.60;90.80;;;;;;5035656;28;20084;-61
2022/07/21 03:10:38;;;;;;;7.78;5.13;;;22.60;90.80;;;;;;5035435;28;20075;-61
2022/07/21 03:13:05;;;;;;;8.07;5.38;;;22.70;90.80;;;;;;5035983;28;20033;-61
2022/07/21 03:15:31;;;;;;;7.82;4.50;;;22.60;90.80;;;;;;5034781;28;20475;-61
2022/07/21 03:17:57;;;;;;;10.25;5.40;;;22.60;90.90;;;;;;5035721;28;20035;-61
2022/07/21 03:20:27;;;;;;;7.03;5.20;;;22.70;90.70;;;;;;5035368;28;20510;-61
2022/07/21 03:22:53;;;;;;;7.70;5.10;;;22.60;90.90;;;;;;5035560;28;20094;-61
2022/07/21 03:25:19;;;;;;;8.85;5.72;;;22.60;91.00;;;;;;5035338;28;20425;-61
2022/07/21 03:27:46;;;;;;;9.32;5.10;;;22.60;91.00;;;;;;5035272;28;20044;-61
2022/07/21 03:30:12;;;;;;;9.18;5.32;;;22.60;91.00;;;;;;5035367;28;20471;-61
2022/07/21 03:32:38;;;;;;;7.03;4.80;;;22.60;91.10;;;;;;5035311;28;20029;-61
2022/07/21 03:35:05;;;;;;;9.55;5.57;;;22.60;91.20;;;;;;5034987;28;20018;-61
2022/07/21 03:37:31;;;;;;;11.10;5.68;;;22.60;91.10;;;;;;5035474;28;20103;-62
2022/07/21 03:39:57;;;;;;;9.05;5.22;;;22.50;91.30;;;;;;5035091;28;20056;-61
2022/07/21 03:42:23;;;;;;;8.75;4.82;;;22.50;91.40;;;;;;5035026;28;20096;-61
2022/07/21 03:44:48;;;;;;;7.82;5.13;;;22.50;91.50;;;;;;5035032;28;20029;-61
2022/07/21 03:47:14;;;;;;;10.60;4.95;;;22.50;91.60;;;;;;5035122;28;20024;-61
2022/07/21 03:49:40;;;;;;;10.80;5.30;;;22.50;91.60;;;;;;5035070;28;20021;-61
2022/07/21 03:52:05;;;;;;;8.35;5.70;;;22.50;91.60;;;;;;5034801;28;20033;-61
2022/07/21 03:54:31;;;;;;;16.73;5.22;;;22.50;91.70;;;;;;5034750;28;20030;-61
2022/07/21 03:56:56;;;;;;;10.13;5.78;;;22.50;91.70;;;;;;5034823;28;20030;-61
2022/07/21 03:59:22;;;;;;;7.25;5.40;;;22.50;91.70;;;;;;5034822;28;20020;-61
2022/07/21 04:01:47;;;;;;;8.38;6.05;;;22.50;91.80;;;;;;5034752;28;20037;-61
2022/07/21 04:04:13;;;;;;;13.10;6.82;;;22.50;91.80;;;;;;5034673;28;20025;-61
2022/07/21 04:06:38;;;;;;;11.98;6.00;;;22.50;91.80;;;;;;5034520;28;20034;-61
2022/07/21 04:09:04;;;;;;;12.52;6.05;;;22.60;91.70;;;;;;5034578;28;20022;-61
2022/07/21 04:11:33;;;;;;;8.15;5.80;;;22.60;91.70;;;;;;5034416;28;20451;-61
2022/07/21 04:13:58;;;;;;;8.07;5.95;;;22.60;92.00;;;;;;5034477;28;20478;-61
2022/07/21 04:16:24;;;;;;;10.75;6.93;;;22.60;91.90;;;;;;5034483;28;20028;-61
2022/07/21 04:18:50;;;;;;;10.07;7.55;;;22.60;91.90;;;;;;5034478;28;20029;-61
2022/07/21 04:21:15;;;;;;;11.38;6.95;;;22.60;92.10;;;;;;5034324;28;20040;-61
2022/07/21 04:23:41;;;;;;;12.05;7.78;;;22.60;92.30;;;;;;5033969;28;20045;-61
2022/07/21 04:26:07;;;;;;;12.27;7.97;;;22.60;92.20;;;;;;5034307;28;20029;-61
2022/07/21 04:28:32;;;;;;;13.18;7.82;;;22.70;92.20;;;;;;5033163;28;20398;-61
2022/07/21 04:30:58;;;;;;;12.48;8.73;;;22.70;92.10;;;;;;5034319;28;20087;-61
2022/07/21 04:33:23;;;;;;;14.38;8.05;;;22.70;92.20;;;;;;5032714;28;20022;-61
2022/07/21 04:35:49;;;;;;;13.20;8.95;;;22.60;92.30;;;;;;5034153;28;20044;-61
2022/07/21 04:38:14;;;;;;;13.82;9.20;;;22.60;92.50;;;;;;5033672;28;20026;-61
2022/07/21 04:40:40;;;;;;;15.90;9.52;;;22.60;92.50;;;;;;5033979;28;20063;-61
2022/07/21 04:43:06;;;;;;;14.82;9.30;;;22.60;92.70;;;;;;5033929;28;20041;-61
2022/07/21 04:45:32;;;;;;;14.38;10.20;;;22.70;92.80;;;;;;5034068;28;20079;-61
2022/07/21 04:47:57;;;;;;;14.43;10.43;;;22.70;93.20;;;;;;5033810;28;20030;-61
2022/07/21 04:50:25;;;;;;;13.90;10.88;;;22.70;93.20;;;;;;5034057;28;20423;-61
2022/07/21 04:52:51;;;;;;;16.52;11.30;;;22.60;93.60;;;;;;5033623;28;20029;-61
2022/07/21 04:55:17;;;;;;;15.52;10.93;;;22.60;93.50;;;;;;5033875;28;20397;-61
2022/07/21 04:57:45;;;;;;;14.55;11.80;;;22.60;93.50;;;;;;5033745;28;20395;-61
2022/07/21 05:00:14;;;;;;;14.32;11.63;;;22.60;93.50;;;;;;5033625;28;20026;-61
2022/07/21 05:02:39;;;;;;;16.08;11.27;;;22.60;93.60;;;;;;5044438;28;20037;-61
2022/07/21 05:05:06;;;;;;;15.73;12.68;;;22.60;93.80;;;;;;5033579;28;20029;-61
2022/07/21 05:07:32;;;;;;;17.77;13.13;;;22.60;94.00;;;;;;5030584;28;20383;-61
2022/07/21 05:09:58;;;;;;;15.60;13.20;;;22.60;93.90;;;;;;5033061;28;20089;-61
2022/07/21 05:12:25;;;;;;;16.85;13.30;;;22.60;93.90;;;;;;5033580;28;20453;-61
2022/07/21 05:14:51;;;;;;;17.55;14.13;;;22.50;94.20;;;;;;5033445;28;20022;-61
2022/07/21 05:17:17;;;;;;;17.10;14.43;;;22.60;94.20;;;;;;5032567;28;20399;-61
2022/07/21 05:19:43;;;;;;;20.52;14.10;;;22.50;94.30;;;;;;5033346;28;20030;-61
2022/07/21 05:22:09;;;;;;;15.27;13.60;;;22.60;94.20;;;;;;5032909;28;20033;-61
2022/07/21 05:24:34;;;;;;;16.90;13.45;;;22.50;94.30;;;;;;5033455;28;20024;-62
2022/07/21 05:27:00;;;;;;;16.60;14.80;;;22.50;94.30;;;;;;5033173;28;20037;-62
2022/07/21 05:29:25;;;;;;;17.00;14.80;;;22.50;94.60;;;;;;5033242;28;20026;-61
2022/07/21 05:31:51;;;;;;;17.08;14.90;;;22.50;94.80;;;;;;5033111;28;20109;-61
2022/07/21 05:34:16;;;;;;;19.42;14.07;;;22.40;95.00;;;;;;5033108;28;20037;-61
2022/07/21 05:36:42;;;;;;;16.63;13.93;;;22.40;95.20;;;;;;5032945;28;20063;-61
2022/07/21 05:39:08;;;;;;;16.13;14.43;;;22.40;95.20;;;;;;5031640;28;20033;-61
2022/07/21 05:41:33;;;;;;;14.77;13.13;;;22.50;95.50;;;;;;5046052;28;20047;-61
2022/07/21 05:43:59;;;;;;;12.38;11.07;;;22.50;95.40;;;;;;5050438;28;20394;-62
2022/07/21 05:46:24;;;;;;;10.70;8.02;;;22.80;94.50;;;;;;5052979;28;20028;-61
2022/07/21 05:48:50;;;;;;;16.30;9.70;;;22.90;93.40;;;;;;5050076;28;20024;-61
2022/07/21 05:51:15;;;;;;;11.27;7.60;;;23.00;93.40;;;;;;5039669;28;20029;-61
2022/07/21 05:53:41;;;;;;;12.95;8.38;;;23.10;93.20;;;;;;5041613;28;20532;-61
2022/07/21 05:56:06;;;;;;;9.05;8.13;;;23.20;93.20;;;;;;5033671;28;20534;-61
2022/07/21 05:58:34;;;;;;;9.90;8.93;;;23.20;93.30;;;;;;5042036;28;20498;-61
2022/07/21 06:01:08;;;;;;;9.50;8.48;;;23.30;93.20;;;;;;5035354;28;20028;-61
2022/07/21 06:03:36;;;;;;;8.45;7.53;;;23.30;93.30;;;;;;5037434;28;20036;-61
2022/07/21 06:06:02;;;;;;;8.73;7.68;;;23.40;93.10;;;;;;5034839;28;20049;-61
2022/07/21 06:08:28;;;;;;;10.52;6.55;;;23.40;93.00;;;;;;5032269;28;20144;-61
2022/07/21 06:10:53;;;;;;;5.82;5.22;;;23.40;92.80;;;;;;5046045;28;20107;-61
2022/07/21 06:13:19;;;;;;;7.38;6.30;;;23.40;92.70;;;;;;5032637;28;20020;-61
2022/07/21 06:15:44;;;;;;;6.15;5.55;;;23.50;92.60;;;;;;5034122;28;20471;-61
2022/07/21 06:18:10;;;;;;;9.95;6.60;;;23.40;92.70;;;;;;5031962;28;20034;-61
2022/07/21 06:20:36;;;;;;;8.13;6.30;;;23.40;92.60;;;;;;5032218;28;20021;-61
2022/07/21 06:23:01;;;;;;;7.22;5.93;;;23.50;92.90;;;;;;5032569;28;20044;-61
2022/07/21 06:25:27;;;;;;;11.38;7.50;;;23.50;92.80;;;;;;5030802;28;20417;-61
2022/07/21 06:27:52;;;;;;;8.45;7.65;;;23.50;92.90;;;;;;5037893;28;20033;-61
2022/07/21 06:30:18;;;;;;;11.65;9.68;;;23.50;92.90;;;;;;5032476;28;20029;-62
2022/07/21 06:32:43;;;;;;;11.05;9.82;;;23.60;93.00;;;;;;5045888;28;20021;-61
2022/07/21 06:35:10;;;;;;;12.52;10.15;;;23.60;93.00;;;;;;5032680;28;20108;-61
2022/07/21 06:37:36;;;;;;;12.57;10.45;;;23.50;93.00;;;;;;5035566;28;20017;-61
2022/07/21 06:40:03;;;;;;;11.32;10.13;;;23.50;92.90;;;;;;5035832;28;20393;-61
2022/07/21 06:42:28;;;;;;;11.73;10.25;;;23.60;92.80;;;;;;5031059;28;20029;-61
2022/07/21 06:44:54;;;;;;;12.10;10.75;;;23.60;92.80;;;;;;5032613;28;20021;-61
2022/07/21 06:47:20;;;;;;;11.07;9.93;;;23.50;92.80;;;;;;5032004;28;20502;-61
2022/07/21 06:49:45;;;;;;;13.18;10.52;;;23.60;92.80;;;;;;5040809;28;20048;-62
2022/07/21 06:52:11;;;;;;;11.70;10.50;;;23.60;92.80;;;;;;5037800;28;20037;-61
2022/07/21 06:54:37;;;;;;;11.43;9.10;;;23.60;92.80;;;;;;5036768;28;20160;-61
2022/07/21 06:57:03;;;;;;;12.55;11.18;;;23.60;92.70;;;;;;5039483;28;20374;-61
2022/07/21 06:59:28;;;;;;;13.27;11.93;;;23.60;92.60;;;;;;5045841;28;20037;-61
2022/07/21 07:01:55;;;;;;;13.63;11.13;;;23.60;92.70;;;;;;5042438;28;20037;-61
2022/07/21 07:04:20;;;;;;;13.15;11.80;;;23.60;92.60;;;;;;5047633;28;20454;-61
2022/07/21 07:06:50;;;;;;;14.68;13.15;;;23.60;92.70;;;;;;5036778;28;20061;-61
2022/07/21 07:09:15;;;;;;;11.07;9.98;;;23.60;92.90;;;;;;5042341;28;20029;-61
2022/07/21 07:11:41;;;;;;;11.45;10.18;;;23.60;92.70;;;;;;5044259;28;20036;-62
2022/07/21 07:14:06;;;;;;;9.85;7.55;;;23.50;92.80;;;;;;5039000;28;20108;-61
2022/07/21 07:16:32;;;;;;;15.52;11.30;;;23.50;92.90;;;;;;5034846;28;20080;-61
2022/07/21 07:18:57;;;;;;;11.50;8.95;;;23.60;92.90;;;;;;5038744;28;20068;-61
2022/07/21 07:21:23;;;;;;;12.50;10.20;;;23.60;92.80;;;;;;5034305;28;20034;-62
2022/07/21 07:23:48;;;;;;;11.55;8.75;;;23.60;93.00;;;;;;5041646;28;20027;-63
2022/07/21 07:26:14;;;;;;;11.77;9.73;;;23.50;92.90;;;;;;5036911;28;20068;-61
2022/07/21 07:28:40;;;;;;;13.68;9.32;;;23.60;92.90;;;;;;5037630;28;20033;-61
2022/07/21 07:31:05;;;;;;;13.38;9.18;;;23.60;92.90;;;;;;5049349;28;20017;-61
2022/07/21 07:33:31;;;;;;;16.08;9.15;;;23.60;93.00;;;;;;5045135;28;20052;-65
2022/07/21 07:35:57;;;;;;;11.43;8.63;;;23.60;93.20;;;;;;5042475;28;20021;-64
2022/07/21 07:38:23;;;;;;;13.95;9.23;;;23.60;93.00;;;;;;5045225;28;20032;-63
2022/07/21 07:40:48;;;;;;;11.55;8.95;;;23.50;93.30;;;;;;5038190;28;20033;-65
2022/07/21 07:43:14;;;;;;;11.65;8.80;;;23.60;93.20;;;;;;5038427;28;20034;-62
2022/07/21 07:45:39;;;;;;;11.73;8.82;;;23.60;93.10;;;;;;5044671;28;20051;-61
2022/07/21 07:48:08;;;;;;;11.15;7.65;;;23.60;92.90;;;;;;5043225;28;20021;-61
2022/07/21 07:50:34;;;;;;;13.45;11.38;;;23.60;93.00;;;;;;5040384;28;20100;-61
2022/07/21 07:52:59;;;;;;;17.08;11.40;;;23.50;93.40;;;;;;5043732;28;20147;-61
2022/07/21 07:55:25;;;;;;;18.75;11.77;;;23.40;93.90;;;;;;5064845;28;20040;-61
2022/07/21 07:57:50;;;;;;;15.98;10.38;;;23.40;94.00;;;;;;5058064;28;20033;-61
2022/07/21 08:00:19;;;;;;;15.05;8.68;;;23.50;93.70;;;;;;5051591;28;20047;-61
2022/07/21 08:02:45;;;;;;;11.02;8.02;;;23.40;93.60;;;;;;5044400;28;20402;-61
2022/07/21 08:05:11;;;;;;;18.58;9.95;;;23.50;93.50;;;;;;5044582;28;20016;-61
2022/07/21 08:07:38;;;;;;;15.90;9.40;;;23.50;94.00;;;;;;5039011;28;20024;-62
2022/07/21 08:10:13;;;;;;;15.35;8.88;;;23.40;93.90;;;;;;5042107;28;20493;-63
2022/07/21 08:12:40;;;;;;;12.32;8.65;;;23.40;93.80;;;;;;5040588;28;20593;-61
2022/07/21 08:15:07;;;;;;;14.55;8.93;;;23.30;93.80;;;;;;5044855;28;20025;-61
2022/07/21 08:17:33;;;;;;;11.27;8.48;;;23.20;94.20;;;;;;5037161;28;20030;-61
2022/07/21 08:19:59;;;;;;;14.80;8.93;;;23.30;94.10;;;;;;5044962;28;20082;-62
2022/07/21 08:22:24;;;;;;;16.90;10.48;;;23.40;94.20;;;;;;5044538;28;20368;-63
2022/07/21 08:24:50;;;;;;;14.38;8.57;;;23.40;94.40;;;;;;5047242;28;20544;-62
2022/07/21 08:27:15;;;;;;;13.88;8.77;;;23.40;94.00;;;;;;5055752;28;20390;-62
2022/07/21 08:29:41;;;;;;;12.85;8.50;;;23.40;94.10;;;;;;5038199;28;20043;-62
2022/07/21 08:32:07;;;;;;;12.68;8.85;;;23.40;94.00;;;;;;5039369;28;20032;-65
2022/07/21 08:34:32;;;;;;;13.60;9.05;;;23.40;94.10;;;;;;5056208;28;20032;-65
2022/07/21 08:36:58;;;;;;;12.13;8.82;;;23.50;94.10;;;;;;5040258;28;20033;-64
2022/07/21 08:39:24;;;;;;;10.80;8.60;;;23.40;94.10;;;;;;5045533;28;20052;-63
2022/07/21 08:41:52;;;;;;;12.90;8.82;;;23.40;94.10;;;;;;5034187;28;20067;-65
2022/07/21 08:44:19;;;;;;;12.45;8.48;;;23.30;94.30;;;;;;5042299;28;20036;-62
2022/07/21 08:46:49;;;;;;;15.43;9.90;;;23.30;94.20;;;;;;5044158;28;20072;-62
2022/07/21 08:49:19;;;;;;;12.00;8.98;;;23.40;94.10;;;;;;5041005;28;20019;-66
2022/07/21 08:51:44;;;;;;;13.63;7.43;;;23.30;94.00;;;;;;5034103;28;20017;-64
2022/07/21 08:54:10;;;;;;;12.15;9.13;;;23.30;93.90;;;;;;5037024;28;20490;-64
2022/07/21 08:56:35;;;;;;;14.65;9.90;;;23.40;94.20;;;;;;5063932;28;20482;-62
2022/07/21 08:59:02;;;;;;;11.27;8.75;;;23.30;94.10;;;;;;5034687;28;20435;-63
2022/07/21 09:01:27;;;;;;;9.55;7.28;;;23.40;94.00;;;;;;5047103;28;20113;-62
2022/07/21 09:03:53;;;;;;;11.82;7.78;;;23.30;93.90;;;;;;5036514;28;20667;-63
2022/07/21 09:06:19;;;;;;;12.98;5.78;;;23.30;93.80;;;;;;5039561;28;20026;-63
2022/07/21 09:08:45;;;;;;;8.57;5.85;;;23.30;93.80;;;;;;5036693;28;20033;-64
2022/07/21 09:11:17;;;;;;;7.85;5.30;;;23.30;93.90;;;;;;5040399;28;20025;-66
2022/07/21 09:13:46;;;;;;;7.25;5.35;;;23.20;94.10;;;;;;5038260;28;20490;-65
2022/07/21 09:16:12;;;;;;;10.45;5.82;;;23.10;94.40;;;;;;5042353;28;20367;-65
2022/07/21 09:18:50;;;;;;;9.65;5.30;;;23.10;94.50;;;;;;5043978;28;20029;-61
2022/07/21 09:21:17;;;;;;;13.57;6.25;;;23.20;93.90;;;;;;5040868;28;20036;-65
2022/07/21 09:23:42;;;;;;;8.98;5.75;;;23.30;93.80;;;;;;5038751;28;20087;-66
2022/07/21 09:26:08;;;;;;;9.93;6.00;;;23.30;94.00;;;;;;5044660;28;20029;-62
2022/07/21 09:28:34;;;;;;;10.30;6.15;;;23.20;94.20;;;;;;5044150;28;20036;-65
2022/07/21 09:31:08;;;;;;;8.88;5.82;;;23.10;94.10;;;;;;5033261;28;20109;-62
2022/07/21 09:33:42;;;;;;;8.63;5.85;;;23.10;94.00;;;;;;5032682;28;20119;-66
2022/07/21 09:36:10;;;;;;;11.63;6.57;;;23.20;93.80;;;;;;5031947;28;20368;-67
2022/07/21 09:39:04;;;;;;;10.18;4.72;;;23.20;93.90;;;;;;5040364;28;20117;-66
2022/07/21 09:41:30;;;;;;;8.52;5.45;;;23.30;93.80;;;;;;5045713;28;20057;-66
2022/07/21 09:43:57;;;;;;;11.98;4.90;;;23.30;93.60;;;;;;5052604;28;20104;-66
2022/07/21 09:46:28;;;;;;;12.80;5.50;;;23.40;93.40;;;;;;5045940;28;20013;-66
2022/07/21 09:48:57;;;;;;;8.68;5.30;;;23.40;93.40;;;;;;5043744;28;20025;-64
2022/07/21 09:51:26;;;;;;;9.63;4.95;;;23.30;93.40;;;;;;5043704;28;20467;-64
2022/07/21 09:53:53;;;;;;;8.75;4.45;;;23.30;93.60;;;;;;5046546;28;20497;-64
2022/07/21 09:56:20;;;;;;;8.55;4.65;;;23.30;93.60;;;;;;5053919;28;20036;-63
2022/07/21 09:58:48;;;;;;;9.80;5.43;;;23.40;93.70;;;;;;5045248;28;20025;-63
2022/07/21 10:01:14;;;;;;;7.53;4.95;;;23.40;93.50;;;;;;5033643;28;20026;-63
2022/07/21 10:03:39;;;;;;;8.63;5.10;;;23.40;93.50;;;;;;5031722;28;20184;-62
2022/07/21 10:06:06;;;;;;;7.03;4.22;;;23.30;93.60;;;;;;5038795;28;20499;-62
2022/07/21 10:08:33;;;;;;;8.00;4.32;;;23.30;93.50;;;;;;5045056;28;20020;-62
2022/07/21 10:10:59;;;;;;;9.20;4.30;;;23.40;93.40;;;;;;5037078;28;20022;-63
2022/07/21 10:13:26;;;;;;;6.35;3.55;;;23.40;93.40;;;;;;5036434;28;20036;-62
2022/07/21 10:15:53;;;;;;;7.90;3.35;;;23.30;93.30;;;;;;5038623;28;20044;-61
2022/07/21 10:18:22;;;;;;;10.13;3.72;;;23.40;93.10;;;;;;5043274;28;20055;-60
2022/07/21 10:20:52;;;;;;;8.27;3.25;;;23.30;93.20;;;;;;5038421;28;20017;-60
2022/07/21 10:23:32;;;;;;;5.50;3.03;;;23.40;93.40;;;;;;5038089;28;20044;-64
2022/07/21 10:25:58;;;;;;;6.93;4.25;;;23.40;93.10;;;;;;5034054;28;20359;-61
2022/07/21 10:28:24;;;;;;;8.18;4.82;;;23.50;93.20;;;;;;5051274;28;20395;-61
2022/07/21 10:30:53;;;;;;;10.30;6.47;;;23.50;93.30;;;;;;5038234;28;20491;-61
2022/07/21 10:33:21;;;;;;;9.13;5.40;;;23.50;93.30;;;;;;5042448;28;20078;-60
2022/07/21 10:35:49;;;;;;;10.43;6.40;;;23.50;93.20;;;;;;5042587;28;20041;-60
2022/07/21 10:38:28;;;;;;;8.57;6.43;;;23.40;93.30;;;;;;5042524;28;20029;-60
2022/07/21 10:40:54;;;;;;;9.25;4.70;;;23.40;93.60;;;;;;5040490;28;20029;-60
2022/07/21 10:43:26;;;;;;;11.23;5.45;;;23.40;93.30;;;;;;5044659;28;20030;-61
2022/07/21 10:45:53;;;;;;;8.82;4.95;;;23.40;93.40;;;;;;5041041;28;20059;-60
2022/07/21 10:48:37;;;;;;;8.50;5.05;;;23.40;93.30;;;;;;5042325;28;20092;-62
2022/07/21 10:51:24;;;;;;;12.80;5.13;;;23.50;93.50;;;;;;5040277;28;20036;-61
2022/07/21 10:54:16;;;;;;;10.23;4.57;;;23.50;93.60;;;;;;5040582;28;20025;-62
2022/07/21 10:56:41;;;;;;;8.13;4.20;;;23.40;93.60;;;;;;5054364;28;20044;-61
2022/07/21 10:59:07;;;;;;;7.68;4.63;;;23.40;93.50;;;;;;5048010;28;20026;-62
2022/07/21 11:01:33;;;;;;;7.78;4.85;;;23.40;93.70;;;;;;5050128;28;20546;-62
2022/07/21 11:04:13;;;;;;;11.57;4.32;;;23.40;94.00;;;;;;5046637;28;20075;-61
2022/07/21 11:06:40;;;;;;;10.32;4.43;;;23.40;94.10;;;;;;5051201;28;20024;-61
2022/07/21 11:09:11;;;;;;;14.73;5.10;;;23.30;94.00;;;;;;5056623;28;20029;-62
2022/07/21 11:11:55;;;;;;;10.70;3.58;;;23.30;94.10;;;;;;5056071;28;20040;-63
2022/07/21 11:14:38;;;;;;;37.95;11.57;;;23.20;94.10;;;;;;5048464;28;20060;-62
2022/07/21 11:17:04;;;;;;;61.83;18.98;;;23.30;94.50;;;;;;5038457;28;20029;-62
2022/07/21 11:19:31;;;;;;;41.00;14.15;;;23.30;95.50;;;;;;5048330;28;20035;-61
2022/07/21 11:22:03;;;;;;;36.38;10.95;;;23.40;95.20;;;;;;5044170;28;20076;-61
2022/07/21 11:24:29;;;;;;;41.70;13.18;;;23.40;94.80;;;;;;5042421;28;20434;-62
2022/07/21 11:27:05;;;;;;;54.80;16.10;;;23.40;94.80;;;;;;5048289;28;20513;-62
2022/07/21 11:29:32;;;;;;;47.05;15.73;;;23.40;95.30;;;;;;5042246;28;20030;-61
2022/07/21 11:32:01;;;;;;;43.15;12.30;;;23.50;95.70;;;;;;5057320;28;20029;-62
2022/07/21 11:34:44;;;;;;;43.00;13.32;;;23.50;95.50;;;;;;5044243;28;20041;-62
2022/07/21 11:37:11;;;;;;;41.45;11.90;;;23.50;96.00;;;;;;5031258;28;20390;-62
2022/07/21 11:39:37;;;;;;;35.33;10.55;;;23.50;95.70;;;;;;5042100;28;20029;-62
2022/07/21 11:42:08;;;;;;;27.13;8.48;;;23.50;96.00;;;;;;5045465;28;20095;-63
2022/07/21 11:44:35;;;;;;;27.10;9.82;;;23.50;95.50;;;;;;5051672;28;20028;-61
2022/07/21 11:47:02;;;;;;;22.70;8.85;;;23.50;95.70;;;;;;5044889;28;20040;-62
2022/07/21 11:49:29;;;;;;;19.08;6.65;;;23.50;95.40;;;;;;5050266;28;20053;-62
2022/07/21 11:52:01;;;;;;;26.55;9.85;;;23.50;95.30;;;;;;5057586;28;20063;-62
2022/07/21 11:54:39;;;;;;;23.10;7.53;;;23.50;95.60;;;;;;5045778;28;20120;-62
2022/07/21 11:57:07;;;;;;;17.88;7.13;;;23.50;95.50;;;;;;5052670;28;20021;-62
2022/07/21 11:59:35;;;;;;;22.05;8.48;;;23.50;95.40;;;;;;5039600;28;20566;-62
2022/07/21 12:02:07;;;;;;;18.38;7.35;;;23.50;95.40;;;;;;5052272;28;20077;-62
2022/07/21 12:04:49;;;;;;;19.08;7.25;;;23.50;95.30;;;;;;5039344;28;20113;-62
2022/07/21 12:07:18;;;;;;;16.50;5.95;;;23.50;95.30;;;;;;5040898;28;20029;-62
2022/07/21 12:09:47;;;;;;;18.33;7.15;;;23.50;95.00;;;;;;5042499;28;20013;-62
2022/07/21 12:12:13;;;;;;;15.65;5.70;;;23.50;95.00;;;;;;5039058;28;20477;-63
2022/07/21 12:14:50;;;;;;;12.98;5.18;;;23.50;94.90;;;;;;5037701;28;20118;-62
2022/07/21 12:17:30;;;;;;;10.25;3.90;;;23.50;94.50;;;;;;5042983;28;20032;-62
2022/07/21 12:19:56;;;;;;;10.70;4.10;;;23.50;94.40;;;;;;5036185;28;20144;-62
2022/07/21 12:22:33;;;;;;;10.18;4.68;;;23.40;94.40;;;;;;5048710;28;20124;-62
2022/07/21 12:24:59;;;;;;;9.70;4.32;;;23.50;94.40;;;;;;5035985;28;20529;-62
2022/07/21 12:27:24;;;;;;;12.25;4.07;;;23.50;94.40;;;;;;5036713;28;20113;-62
2022/07/21 12:29:50;;;;;;;10.73;4.00;;;23.50;94.40;;;;;;5035921;28;20025;-63
2022/07/21 12:32:41;;;;;;;10.82;4.00;;;23.40;94.30;;;;;;5042259;28;20033;-63
2022/07/21 12:35:16;;;;;;;11.73;3.88;;;23.50;94.50;;;;;;5057491;28;20093;-62
2022/07/21 12:37:52;;;;;;;13.38;4.03;;;23.40;94.50;;;;;;5043686;28;20032;-62
2022/07/21 12:40:19;;;;;;;10.55;3.95;;;23.40;94.50;;;;;;5040989;28;20032;-62
2022/07/21 12:42:45;;;;;;;10.48;4.03;;;23.30;94.50;;;;;;5039615;28;20041;-62
2022/07/21 12:45:16;;;;;;;13.80;4.95;;;23.40;94.40;;;;;;5051406;28;20082;-63